createdAt,value
2018-11-07T00:00:36.732Z,100129.45
2018-11-07T00:03:06.639Z,100127.47
2018-11-07T00:05:36.589Z,100129.64
2018-11-07T00:08:06.829Z,100125.14
2018-11-07T00:10:37.072Z,100134.44
2018-11-07T00:13:07.258Z,100135.29
2018-11-07T00:15:36.969Z,100141.75
2018-11-07T00:18:08.520Z,100142.75
2018-11-07T00:20:38.985Z,100141.42
2018-11-07T00:23:10.310Z,100151.06
2018-11-07T00:25:40.973Z,100140.61
2018-11-07T00:28:12.393Z,100153.05
2018-11-07T00:30:42.945Z,100144.41
2018-11-07T00:33:14.417Z,100143.42
2018-11-07T00:35:44.954Z,100143.08
2018-11-07T00:38:16.355Z,100140.75
2018-11-07T00:40:46.948Z,100139.28
2018-11-07T00:43:18.325Z,100134.30
2018-11-07T00:45:48.918Z,100128.46
2018-11-07T00:48:20.325Z,100125.66
2018-11-07T00:50:51.306Z,100122.14
2018-11-07T00:53:22.173Z,100127.80
2018-11-07T00:55:53.013Z,100128.13
2018-11-07T00:58:24.635Z,100125.45
2018-11-07T01:00:55.116Z,100119.98
2018-11-07T01:03:26.784Z,100122.47
2018-11-07T01:05:57.236Z,100119.46
2018-11-07T01:08:28.193Z,100117.14
2018-11-07T01:10:58.969Z,100111.78
2018-11-07T01:13:30.549Z,100110.12
2018-11-07T01:16:01.006Z,100117.09
2018-11-07T01:18:32.513Z,100117.23
2018-11-07T01:21:03.073Z,100117.71
2018-11-07T01:23:34.576Z,100115.53
2018-11-07T01:26:05.084Z,100113.89
2018-11-07T01:28:36.506Z,100106.92
2018-11-07T01:31:07.120Z,100107.07
2018-11-07T01:33:38.329Z,100113.17
2018-11-07T01:36:09.002Z,100108.68
2018-11-07T01:38:40.380Z,100111.02
2018-11-07T01:41:11.026Z,100108.31
2018-11-07T01:43:42.553Z,100107.33
2018-11-07T01:46:13.022Z,100104.83
2018-11-07T01:48:44.481Z,100102.64
2018-11-07T01:51:14.973Z,100103.30
2018-11-07T01:53:46.506Z,100101.95
2018-11-07T01:56:16.948Z,100094.02
2018-11-07T01:58:49.293Z,100088.02
2018-11-07T02:01:19.030Z,100088.50
2018-11-07T02:03:50.573Z,100082.71
2018-11-07T02:06:21.038Z,100074.87
2018-11-07T02:08:52.333Z,100080.84
2018-11-07T02:11:22.885Z,100078.01
2018-11-07T02:13:54.392Z,100083.67
2018-11-07T02:16:25.021Z,100073.38
2018-11-07T02:18:56.557Z,100076.34
2018-11-07T02:21:27.066Z,100075.14
2018-11-07T02:23:58.363Z,100067.02
2018-11-07T02:26:29.371Z,100061.06
2018-11-07T02:29:00.118Z,100073.69
2018-11-07T02:31:31.229Z,100065.20
2018-11-07T02:34:02.653Z,100069.62
2018-11-07T02:36:33.097Z,100073.92
2018-11-07T02:39:04.782Z,100076.23
2018-11-07T02:41:35.236Z,100070.12
2018-11-07T02:44:06.273Z,100070.83
2018-11-07T02:46:36.954Z,100066.55
2018-11-07T02:49:08.372Z,100071.52
2018-11-07T02:51:39.053Z,100069.05
2018-11-07T02:54:10.519Z,100070.41
2018-11-07T02:56:40.995Z,100070.72
2018-11-07T02:59:12.336Z,100072.37
2018-11-07T03:01:43.034Z,100076.68
2018-11-07T03:04:14.285Z,100073.05
2018-11-07T03:06:45.192Z,100068.05
2018-11-07T03:09:16.002Z,100059.26
2018-11-07T03:11:46.173Z,100065.77
2018-11-07T03:14:17.068Z,100074.05
2018-11-07T03:16:48.611Z,100068.09
2018-11-07T03:19:19.153Z,100066.91
2018-11-07T03:21:50.335Z,100073.20
2018-11-07T03:24:21.874Z,100060.13
2018-11-07T03:26:52.347Z,100061.27
2018-11-07T03:29:23.223Z,100055.30
2018-11-07T03:31:54.007Z,100058.31
2018-11-07T03:34:25.405Z,100059.82
2018-11-07T03:36:55.941Z,100060.31
2018-11-07T03:39:27.486Z,100053.86
2018-11-07T03:41:58.046Z,100059.50
2018-11-07T03:44:29.682Z,100056.19
2018-11-07T03:47:00.110Z,100031.09
2018-11-07T03:49:31.348Z,100056.38
2018-11-07T03:52:02.038Z,100052.38
2018-11-07T03:54:33.569Z,100058.52
2018-11-07T03:57:04.246Z,100055.86
2018-11-07T03:59:35.117Z,100060.00
2018-11-07T04:02:06.468Z,100058.03
2018-11-07T04:04:37.209Z,100055.88
2018-11-07T04:07:08.064Z,100052.89
2018-11-07T04:09:39.297Z,100050.92
2018-11-07T04:12:09.977Z,100052.56
2018-11-07T04:14:41.262Z,100051.90
2018-11-07T04:17:11.942Z,100057.20
2018-11-07T04:19:43.598Z,100054.55
2018-11-07T04:22:14.033Z,100050.89
2018-11-07T04:24:45.479Z,100056.22
2018-11-07T04:27:15.925Z,100050.57
2018-11-07T04:29:47.346Z,100047.05
2018-11-07T04:32:17.943Z,100054.88
2018-11-07T04:34:49.535Z,100057.67
2018-11-07T04:37:19.987Z,100057.55
2018-11-07T04:39:51.771Z,100048.38
2018-11-07T04:42:22.215Z,100060.81
2018-11-07T04:44:53.125Z,100061.14
2018-11-07T04:47:24.513Z,100062.17
2018-11-07T04:49:55.095Z,100055.02
2018-11-07T04:52:26.320Z,100066.63
2018-11-07T04:54:57.589Z,100070.80
2018-11-07T04:57:28.699Z,100074.41
2018-11-07T04:59:59.236Z,100073.89
2018-11-07T05:02:29.953Z,100080.70
2018-11-07T05:05:01.408Z,100079.53
2018-11-07T05:07:32.035Z,100086.00
2018-11-07T05:10:03.482Z,100084.66
2018-11-07T05:12:34.000Z,100081.84
2018-11-07T05:15:05.852Z,100077.72
2018-11-07T05:17:36.297Z,100080.07
2018-11-07T05:20:08.809Z,100072.62
2018-11-07T05:22:38.586Z,100071.44
2018-11-07T05:25:10.274Z,100075.55
2018-11-07T05:27:40.334Z,100085.69
2018-11-07T05:30:12.148Z,100077.05
2018-11-07T05:32:42.316Z,100091.94
2018-11-07T05:35:13.101Z,100093.25
2018-11-07T05:37:44.265Z,100090.91
2018-11-07T05:40:15.190Z,100096.89
2018-11-07T05:42:45.956Z,100102.00
2018-11-07T05:45:17.500Z,100106.16
2018-11-07T05:47:48.061Z,100102.97
2018-11-07T05:50:19.488Z,100105.08
2018-11-07T05:52:50.115Z,100105.56
2018-11-07T05:55:21.336Z,100112.23
2018-11-07T05:57:52.004Z,100109.59
2018-11-07T06:00:23.405Z,100112.67
2018-11-07T06:02:54.005Z,100109.67
2018-11-07T06:05:25.427Z,100103.89
2018-11-07T06:07:56.102Z,100106.03
2018-11-07T06:10:27.348Z,100109.03
2018-11-07T06:12:58.028Z,100109.66
2018-11-07T06:15:29.399Z,100117.25
2018-11-07T06:17:59.995Z,100114.20
2018-11-07T06:20:31.471Z,100115.76
2018-11-07T06:23:02.092Z,100113.95
2018-11-07T06:25:33.125Z,100114.88
2018-11-07T06:28:03.959Z,100110.93
2018-11-07T06:30:35.424Z,100115.58
2018-11-07T06:33:06.223Z,100118.77
2018-11-07T06:35:37.158Z,100116.43
2018-11-07T06:38:08.386Z,100119.05
2018-11-07T06:40:40.253Z,100115.63
2018-11-07T06:43:10.070Z,100125.30
2018-11-07T06:45:41.422Z,100125.95
2018-11-07T06:48:12.038Z,100127.84
2018-11-07T06:50:43.330Z,100136.16
2018-11-07T06:53:14.072Z,100126.09
2018-11-07T06:55:45.142Z,100127.95
2018-11-07T06:58:16.018Z,100116.67
2018-11-07T07:00:47.481Z,100119.36
2018-11-07T07:03:18.070Z,100114.28
2018-11-07T07:05:49.400Z,100120.95
2018-11-07T07:08:20.011Z,100120.97
2018-11-07T07:10:51.409Z,100119.66
2018-11-07T07:13:21.993Z,100111.06
2018-11-07T07:15:53.388Z,100115.53
2018-11-07T07:18:24.060Z,100107.45
2018-11-07T07:20:55.363Z,100110.30
2018-11-07T07:23:26.072Z,100112.49
2018-11-07T07:25:57.398Z,100102.38
2018-11-07T07:28:28.008Z,100101.21
2018-11-07T07:30:59.480Z,100112.51
2018-11-07T07:33:30.017Z,100114.50
2018-11-07T07:36:01.414Z,100109.70
2018-11-07T07:38:32.048Z,100106.86
2018-11-07T07:41:03.806Z,100114.16
2018-11-07T07:43:34.300Z,100102.86
2018-11-07T07:46:05.153Z,100111.31
2018-11-07T07:48:36.342Z,100103.63
2018-11-07T07:51:07.226Z,100112.94
2018-11-07T07:53:38.186Z,100101.59
2018-11-07T07:56:09.472Z,100106.88
2018-11-07T07:58:40.276Z,100112.20
2018-11-07T08:01:11.209Z,100102.68
2018-11-07T08:03:42.054Z,100104.34
2018-11-07T08:06:13.576Z,100109.94
2018-11-07T08:08:44.595Z,100099.56
2018-11-07T08:11:15.541Z,100106.19
2018-11-07T08:13:46.046Z,100094.97
2018-11-07T08:16:17.406Z,100105.22
2018-11-07T08:18:47.938Z,100102.98
2018-11-07T08:21:19.504Z,100106.57
2018-11-07T08:23:49.536Z,100107.19
2018-11-07T08:26:20.162Z,100113.63
2018-11-07T08:28:51.138Z,100110.09
2018-11-07T08:31:21.992Z,100112.75
2018-11-07T08:33:53.515Z,100116.97
2018-11-07T08:36:24.006Z,100116.18
2018-11-07T08:38:55.416Z,100118.66
2018-11-07T08:41:25.998Z,100122.09
2018-11-07T08:44:03.170Z,100115.05
2018-11-07T08:46:32.971Z,100112.34
2018-11-07T08:49:02.790Z,100120.67
2018-11-07T08:51:32.890Z,100117.14
2018-11-07T08:54:03.288Z,100120.05
2018-11-07T08:56:33.058Z,100106.08
2018-11-07T08:59:02.845Z,100115.21
2018-11-07T09:04:05.093Z,100116.60
2018-11-07T09:06:36.470Z,100112.70
2018-11-07T09:09:10.585Z,100104.53
2018-11-07T09:11:40.552Z,100111.53
2018-11-07T09:14:10.730Z,100108.90
2018-11-07T09:16:40.579Z,100114.73
2018-11-07T09:19:11.240Z,100107.95
2018-11-07T09:21:42.024Z,100102.63
2018-11-07T09:24:13.348Z,100114.22
2018-11-07T09:26:44.123Z,100111.66
2018-11-07T09:29:15.096Z,100111.98
2018-11-07T09:31:46.150Z,100117.47
2018-11-07T09:34:17.125Z,100111.80
2018-11-07T09:36:47.967Z,100110.78
2018-11-07T09:39:19.409Z,100113.62
2018-11-07T09:41:49.983Z,100116.23
2018-11-07T09:44:21.494Z,100117.77
2018-11-07T09:46:51.982Z,100113.67
2018-11-07T09:49:23.598Z,100120.98
2018-11-07T09:51:54.073Z,100120.59
2018-11-07T09:54:25.610Z,100112.25
2018-11-07T09:56:56.272Z,100115.10
2018-11-07T09:59:27.112Z,100116.55
2018-11-07T10:01:58.061Z,100110.95
2018-11-07T10:04:29.379Z,100122.85
2018-11-07T10:06:59.989Z,100114.05
2018-11-07T10:09:31.312Z,100105.94
2018-11-07T10:12:02.002Z,100100.27
2018-11-07T10:14:33.514Z,100103.74
2018-11-07T10:17:04.008Z,100104.52
2018-11-07T10:19:35.397Z,100106.59
2018-11-07T10:22:06.327Z,100094.14
2018-11-07T10:24:37.422Z,100100.20
2018-11-07T10:27:08.143Z,100093.82
2018-11-07T10:29:39.313Z,100090.48
2018-11-07T10:32:10.360Z,100090.53
2018-11-07T10:34:41.249Z,100081.75
2018-11-07T10:37:12.039Z,100081.98
2018-11-07T10:39:43.462Z,100074.28
2018-11-07T10:42:14.461Z,100078.27
2018-11-07T10:44:45.029Z,100079.56
2018-11-07T10:47:16.311Z,100080.22
2018-11-07T10:49:47.073Z,100074.27
2018-11-07T10:52:18.293Z,100070.15
2018-11-07T10:54:49.254Z,100073.05
2018-11-07T10:57:19.929Z,100078.66
2018-11-07T10:59:51.578Z,100083.30
2018-11-07T11:02:27.248Z,100078.24
2018-11-07T11:04:57.134Z,100068.23
2018-11-07T11:07:26.972Z,100063.27
2018-11-07T11:09:56.847Z,100065.02
2018-11-07T11:12:26.731Z,100071.25
2018-11-07T11:14:57.144Z,100063.09
2018-11-07T11:17:28.557Z,100065.49
2018-11-07T11:19:59.146Z,100065.70
2018-11-07T11:22:30.012Z,100072.20
2018-11-07T11:25:01.264Z,100071.17
2018-11-07T11:27:32.194Z,100067.75
2018-11-07T11:30:03.085Z,100068.69
2018-11-07T11:32:34.414Z,100070.97
2018-11-07T11:35:05.495Z,100080.56
2018-11-07T11:37:36.204Z,100074.58
2018-11-07T11:40:09.282Z,100078.81
2018-11-07T11:42:39.366Z,100074.06
2018-11-07T11:45:11.429Z,100074.66
2018-11-07T11:47:42.666Z,100060.75
2018-11-07T11:50:14.987Z,100069.31
2018-11-07T11:52:45.906Z,100067.64
2018-11-07T11:55:15.709Z,100070.22
2018-11-07T12:13:32.588Z,100020.36
2018-11-07T12:16:02.392Z,100054.05
2018-11-07T12:18:32.442Z,100050.23
2018-11-07T12:21:02.541Z,100043.70
2018-11-07T12:23:32.474Z,100050.19
2018-11-07T12:26:02.602Z,100045.52
2018-11-07T12:28:32.479Z,100051.95
2018-11-07T12:31:02.582Z,100034.59
2018-11-07T12:33:32.498Z,100041.56
2018-11-07T12:36:02.850Z,100040.50
2018-11-07T12:38:32.805Z,100035.05
2018-11-07T12:41:02.540Z,100037.01
2018-11-07T12:43:32.958Z,100033.91
2018-11-07T12:46:02.700Z,100032.66
2018-11-07T12:48:32.544Z,100035.79
2018-11-07T12:51:02.676Z,100034.14
2018-11-07T12:53:32.778Z,100041.91
2018-11-07T12:56:02.594Z,100034.75
2018-11-07T12:58:32.462Z,100041.55
2018-11-07T13:01:02.557Z,100035.18
2018-11-07T13:03:32.473Z,100037.94
2018-11-07T13:06:02.481Z,100044.00
2018-11-07T13:08:32.954Z,100032.69
2018-11-07T13:11:03.644Z,100033.73
2018-11-07T13:13:33.610Z,100041.49
2018-11-07T13:16:03.394Z,100042.34
2018-11-07T13:18:33.498Z,100043.64
2018-11-07T13:21:03.463Z,100043.22
2018-11-07T13:23:33.514Z,100040.04
2018-11-07T13:26:03.653Z,100040.58
2018-11-07T13:28:33.583Z,100041.33
2018-11-07T13:31:03.559Z,100044.75
2018-11-07T13:33:33.516Z,100051.91
2018-11-07T13:36:03.829Z,100041.58
2018-11-07T13:38:34.144Z,100046.33
2018-11-07T13:41:03.945Z,100051.24
2018-11-07T13:43:33.871Z,100053.29
2018-11-07T13:46:03.781Z,100056.59
2018-11-07T13:48:33.650Z,100063.25
2018-11-07T13:51:03.522Z,100059.16
2018-11-07T13:53:33.705Z,100069.02
2018-11-07T13:56:03.445Z,100067.36
2018-11-07T13:58:33.554Z,100067.28
2018-11-07T14:01:03.480Z,100072.13
2018-11-07T14:03:33.705Z,100066.45
2018-11-07T14:06:03.652Z,100065.97
2018-11-07T14:08:33.607Z,100064.31
2018-11-07T14:11:03.553Z,100072.14
2018-11-07T14:13:33.549Z,100074.39
2018-11-07T14:16:03.680Z,100077.94
2018-11-07T14:18:33.553Z,100075.53
2018-11-07T14:21:03.662Z,100074.02
2018-11-07T14:23:33.768Z,100075.38
2018-11-07T14:26:03.695Z,100080.73
2018-11-07T14:28:33.816Z,100081.34
2018-11-07T14:31:03.705Z,100082.88
2018-11-07T14:33:34.057Z,100082.69
2018-11-07T14:36:03.812Z,100080.61
2018-11-07T14:38:33.618Z,100077.56
2018-11-07T14:41:05.158Z,100082.52
2018-11-07T14:43:34.958Z,100074.67
2018-11-07T14:46:04.817Z,100077.99
2018-11-07T14:48:34.629Z,100084.23
2018-11-07T14:51:04.454Z,100085.33
2018-11-07T14:53:34.653Z,100085.26
2018-11-07T14:56:04.635Z,100084.23
2018-11-07T14:58:34.508Z,100084.05
2018-11-07T15:01:04.529Z,100090.55
2018-11-07T15:03:34.445Z,100088.49
2018-11-07T15:06:04.646Z,100090.05
2018-11-07T15:08:34.600Z,100091.00
2018-11-07T15:11:04.654Z,100101.43
2018-11-07T15:13:34.526Z,100105.97
2018-11-07T15:16:04.546Z,100096.55
2018-11-07T15:18:34.566Z,100099.19
2018-11-07T15:21:04.428Z,100094.10
2018-11-07T15:23:34.680Z,100092.67
2018-11-07T15:26:04.630Z,100035.16
2018-11-07T15:28:34.402Z,100097.97
2018-11-07T15:31:04.509Z,100093.91
2018-11-07T15:33:34.361Z,100099.14
2018-11-07T15:36:04.485Z,100095.88
2018-11-07T15:38:36.205Z,100100.69
2018-11-07T15:41:06.309Z,100102.56
2018-11-07T15:43:37.308Z,100108.45
2018-11-07T15:46:07.918Z,100111.79
2018-11-07T15:48:37.854Z,100108.01
2018-11-07T15:51:12.210Z,100116.57
2018-11-07T15:53:42.954Z,100111.08
2018-11-07T15:56:12.822Z,100115.70
2018-11-07T15:58:42.611Z,100121.45
2018-11-07T16:01:12.589Z,100113.99
2018-11-07T16:03:48.827Z,100121.13
2018-11-07T16:06:20.104Z,100127.75
2018-11-07T16:08:50.005Z,100124.27
2018-11-07T16:11:19.818Z,100130.31
2018-11-07T16:13:50.219Z,100123.27
2018-11-07T16:16:20.443Z,100124.27
2018-11-07T16:18:50.547Z,100121.39
2018-11-07T16:21:20.475Z,100122.78
2018-11-07T16:23:50.491Z,100126.22
2018-11-07T16:26:20.684Z,100123.16
2018-11-07T16:28:50.474Z,100120.30
2018-11-07T16:31:20.775Z,100122.56
2018-11-07T16:33:50.531Z,100130.33
2018-11-07T16:36:20.450Z,100134.39
2018-11-07T16:38:50.463Z,100134.28
2018-11-07T16:41:20.537Z,100137.56
2018-11-07T16:43:50.628Z,100135.64
2018-11-07T16:46:20.598Z,100132.59
2018-11-07T16:48:50.735Z,100125.84
2018-11-07T16:51:20.544Z,100145.84
2018-11-07T16:53:50.497Z,100144.34
2018-11-07T16:56:20.830Z,100142.25
2018-11-07T16:58:50.575Z,100140.23
2018-11-07T17:01:20.530Z,100138.72
2018-11-07T17:03:50.805Z,100129.27
2018-11-07T17:06:20.691Z,100143.59
2018-11-07T17:08:50.694Z,100157.70
2018-11-07T17:11:20.566Z,100163.48
2018-11-07T17:13:50.378Z,100172.06
2018-11-07T17:16:20.245Z,100168.55
2018-11-07T17:18:50.085Z,100166.93
2018-11-07T17:21:19.923Z,100166.98
2018-11-07T17:23:49.805Z,100165.36
2018-11-07T17:26:19.778Z,100164.72
2018-11-07T17:28:49.584Z,100164.76
2018-11-07T17:31:19.887Z,100167.84
2018-11-07T17:33:49.728Z,100175.00
2018-11-07T17:36:20.273Z,100180.54
2018-11-07T17:38:51.053Z,100189.40
2018-11-07T17:41:22.386Z,100188.14
2018-11-07T17:43:53.138Z,100182.52
2018-11-07T17:46:24.152Z,100194.08
2018-11-07T17:48:55.176Z,100190.76
2018-11-07T17:51:29.691Z,100194.77
2018-11-07T17:53:59.593Z,100195.12
2018-11-07T17:56:29.908Z,100191.16
2018-11-07T17:58:59.984Z,100191.93
2018-11-07T18:01:29.939Z,100195.32
2018-11-07T18:04:01.391Z,100201.63
2018-11-07T18:06:32.111Z,100197.07
2018-11-07T18:09:03.082Z,100193.72
2018-11-07T18:11:34.084Z,100198.02
2018-11-07T18:14:05.629Z,100197.02
2018-11-07T18:16:36.157Z,100196.98
2018-11-07T18:19:07.430Z,100187.70
2018-11-07T18:21:38.118Z,100189.06
2018-11-07T18:24:08.965Z,100194.53
2018-11-07T18:26:40.462Z,100195.44
2018-11-07T18:29:11.071Z,100200.63
2018-11-07T18:31:42.502Z,100203.51
2018-11-07T18:34:13.057Z,100205.83
2018-11-07T18:36:44.438Z,100212.02
2018-11-07T18:39:15.443Z,100210.62
2018-11-07T18:41:46.296Z,100211.06
2018-11-07T18:44:17.078Z,100213.42
2018-11-07T18:46:48.156Z,100210.48
2018-11-07T18:49:19.040Z,100211.84
2018-11-07T18:51:50.056Z,100213.52
2018-11-07T18:54:21.303Z,100215.18
2018-11-07T18:56:52.194Z,100215.86
2018-11-07T18:59:22.984Z,100214.74
2018-11-07T19:01:54.442Z,100224.89
2018-11-07T19:04:25.958Z,100210.92
2018-11-07T19:06:56.508Z,100224.08
2018-11-07T19:09:27.059Z,100223.58
2018-11-07T19:11:58.407Z,100225.26
2018-11-07T19:14:29.013Z,100228.60
2018-11-07T19:17:00.480Z,100233.80
2018-11-07T19:19:31.125Z,100229.12
2018-11-07T19:22:02.828Z,100233.80
2018-11-07T19:24:33.336Z,100235.63
2018-11-07T19:27:04.162Z,100240.98
2018-11-07T19:29:35.065Z,100244.84
2018-11-07T19:32:06.225Z,100249.00
2018-11-07T19:34:37.130Z,100250.19
2018-11-07T19:37:08.480Z,100249.67
2018-11-07T19:39:39.099Z,100244.69
2018-11-07T19:42:10.644Z,100249.69
2018-11-07T19:44:41.790Z,100255.34
2018-11-07T19:47:12.493Z,100252.69
2018-11-07T19:49:43.140Z,100248.71
2018-11-07T19:52:16.410Z,100245.73
2018-11-07T19:54:46.911Z,100246.92
2018-11-07T19:57:17.176Z,100248.41
2018-11-07T19:59:47.210Z,100245.62
2018-11-07T20:02:18.259Z,100253.11
2018-11-07T20:04:49.246Z,100262.11
2018-11-07T20:07:20.098Z,100264.45
2018-11-07T20:09:51.974Z,100264.61
2018-11-07T20:12:22.405Z,100262.47
2018-11-07T20:14:53.052Z,100254.30
2018-11-07T20:17:24.064Z,100252.16
2018-11-07T20:19:55.008Z,100231.53
2018-11-07T20:22:26.378Z,100261.48
2018-11-07T20:24:57.523Z,100250.48
2018-11-07T20:27:28.488Z,100252.48
2018-11-07T20:29:59.452Z,100252.30
2018-11-07T20:32:30.304Z,100254.83
2018-11-07T20:35:00.972Z,100254.83
2018-11-07T20:37:32.451Z,100251.81
2018-11-07T20:40:03.103Z,100252.83
2018-11-07T20:42:34.101Z,100254.16
2018-11-07T20:45:05.652Z,100252.98
2018-11-07T20:47:36.446Z,100257.31
2018-11-07T20:50:09.309Z,100260.14
2018-11-07T20:52:40.433Z,100261.63
2018-11-07T20:55:11.633Z,100265.95
2018-11-07T20:57:41.967Z,100263.81
2018-11-07T21:00:17.029Z,100260.95
2018-11-07T21:02:47.219Z,100256.14
2018-11-07T21:05:17.195Z,100264.79
2018-11-07T21:07:47.619Z,100260.47
2018-11-07T21:10:18.740Z,100251.16
2018-11-07T21:12:49.088Z,100254.50
2018-11-07T21:15:19.906Z,100261.81
2018-11-07T21:17:49.938Z,100263.48
2018-11-07T21:20:19.803Z,100270.13
2018-11-07T21:22:50.429Z,100269.28
2018-11-07T21:25:21.038Z,100262.81
2018-11-07T21:27:52.369Z,100264.14
2018-11-07T21:30:23.025Z,100273.12
2018-11-07T21:32:54.507Z,100270.45
2018-11-07T21:39:23.854Z,100270.13
2018-11-07T21:41:53.736Z,100279.24
2018-11-07T21:44:23.762Z,100275.77
2018-11-07T21:46:53.796Z,100280.72
2018-11-07T21:49:23.695Z,100275.41
2018-11-07T21:51:53.765Z,100279.39
2018-11-07T21:54:23.550Z,100275.73
2018-11-07T21:56:53.786Z,100275.40
2018-11-07T21:59:23.566Z,100277.72
2018-11-07T22:01:53.657Z,100287.70
2018-11-07T22:04:23.566Z,100289.35
2018-11-07T22:06:53.601Z,100293.00
2018-11-07T22:09:23.668Z,100288.01
2018-11-07T22:11:53.649Z,100281.05
2018-11-07T22:14:23.632Z,100284.37
2018-11-07T22:16:53.581Z,100280.22
2018-11-07T22:19:23.793Z,100279.20
2018-11-07T22:21:53.645Z,100284.30
2018-11-07T22:24:23.610Z,100286.62
2018-11-07T22:26:53.818Z,100287.27
2018-11-07T22:29:23.773Z,100294.06
2018-11-07T22:31:53.706Z,100284.94
2018-11-07T22:34:23.786Z,100285.08
2018-11-07T22:36:53.611Z,100281.39
2018-11-07T22:39:23.718Z,100283.20
2018-11-07T22:41:53.590Z,100284.80
2018-11-07T22:44:23.529Z,100279.17
2018-11-07T22:46:53.696Z,100283.44
2018-11-07T22:49:23.673Z,100286.34
2018-11-07T22:51:53.682Z,100294.13
2018-11-07T22:54:23.565Z,100296.44
2018-11-07T22:56:53.602Z,100297.63
2018-11-07T22:59:23.637Z,100291.68
2018-11-07T23:01:53.489Z,100288.85
2018-11-07T23:04:23.627Z,100293.30
2018-11-07T23:06:53.616Z,100292.00
2018-11-07T23:09:23.581Z,100298.08
2018-11-07T23:11:53.654Z,100304.56
2018-11-07T23:14:23.526Z,100301.05
2018-11-07T23:16:53.777Z,100292.62
2018-11-07T23:19:23.628Z,100296.82
2018-11-07T23:21:53.659Z,100293.83
2018-11-07T23:24:23.521Z,100296.28
2018-11-07T23:26:53.562Z,100301.56
2018-11-07T23:29:23.661Z,100301.68
2018-11-07T23:31:59.656Z,100298.91
2018-11-07T23:34:30.184Z,100296.88
2018-11-07T23:37:00.529Z,100294.68
2018-11-07T23:39:30.610Z,100300.47
2018-11-07T23:42:00.579Z,100298.81
2018-11-07T23:44:30.549Z,100297.95
2018-11-07T23:47:00.590Z,100293.13
2018-11-07T23:49:30.560Z,100280.45
2018-11-07T23:52:00.745Z,100296.09
2018-11-07T23:54:30.515Z,100296.75
2018-11-07T23:57:00.541Z,100297.06
2018-11-07T23:59:30.643Z,100298.53
